createdAt,value
2023-04-16T00:00:54.223Z,20.00
2023-04-16T00:03:22.148Z,18.10
2023-04-16T00:05:50.039Z,22.38
2023-04-16T00:08:17.705Z,17.33
2023-04-16T00:10:46.814Z,20.63
2023-04-16T00:13:14.558Z,18.75
2023-04-16T00:15:42.171Z,21.48
2023-04-16T00:18:09.920Z,21.70
2023-04-16T00:20:37.953Z,19.52
2023-04-16T00:23:05.720Z,21.40
2023-04-16T00:25:33.364Z,22.38
2023-04-16T00:28:02.883Z,22.15
2023-04-16T00:30:30.574Z,20.88
2023-04-16T00:32:58.440Z,22.65
2023-04-16T00:35:26.307Z,23.17
2023-04-16T00:37:53.986Z,24.70
2023-04-16T00:40:22.048Z,23.70
2023-04-16T00:42:49.756Z,24.33
2023-04-16T00:45:18.839Z,25.25
2023-04-16T00:47:46.812Z,25.70
2023-04-16T00:50:15.184Z,21.80
2023-04-16T00:52:43.676Z,22.15
2023-04-16T00:55:13.371Z,23.65
2023-04-16T00:57:41.081Z,20.48
2023-04-16T01:00:09.825Z,26.88
2023-04-16T01:02:39.336Z,19.73
2023-04-16T01:05:07.790Z,22.50
2023-04-16T01:07:35.759Z,26.95
2023-04-16T01:10:04.074Z,25.13
2023-04-16T01:12:32.518Z,26.10
2023-04-16T01:15:00.744Z,25.73
2023-04-16T01:17:28.483Z,20.92
2023-04-16T01:20:00.593Z,25.70
2023-04-16T01:22:29.902Z,29.50
2023-04-16T01:24:57.639Z,26.67
2023-04-16T01:27:25.535Z,29.33
2023-04-16T01:29:53.378Z,31.55
2023-04-16T01:32:21.094Z,27.55
2023-04-16T01:34:48.791Z,31.02
2023-04-16T01:37:16.602Z,31.27
2023-04-16T01:39:45.788Z,30.90
2023-04-16T01:42:13.449Z,31.92
2023-04-16T01:44:41.125Z,33.70
2023-04-16T01:47:09.515Z,37.08
2023-04-16T01:49:37.602Z,28.98
2023-04-16T01:52:05.650Z,35.72
2023-04-16T01:54:33.680Z,32.95
2023-04-16T01:57:03.189Z,31.55
2023-04-16T01:59:30.877Z,32.03
2023-04-16T02:02:02.352Z,35.70
2023-04-16T02:04:30.101Z,36.75
2023-04-16T02:06:57.760Z,33.17
2023-04-16T02:09:25.598Z,38.80
2023-04-16T02:11:53.289Z,34.10
2023-04-16T02:14:25.496Z,34.92
2023-04-16T02:16:53.324Z,38.15
2023-04-16T02:19:21.712Z,36.55
2023-04-16T02:21:49.602Z,34.85
2023-04-16T02:24:17.300Z,37.58
2023-04-16T02:26:45.050Z,35.65
2023-04-16T02:29:12.758Z,41.10
2023-04-16T02:31:41.899Z,35.95
2023-04-16T02:34:09.672Z,41.28
2023-04-16T02:36:37.868Z,37.10
2023-04-16T02:39:06.289Z,33.17
2023-04-16T02:41:34.032Z,34.33
2023-04-16T02:44:02.007Z,36.17
2023-04-16T02:46:29.727Z,38.50
2023-04-16T02:48:58.792Z,34.85
2023-04-16T02:51:27.704Z,39.38
2023-04-16T02:53:55.384Z,42.35
2023-04-16T02:56:23.060Z,35.55
2023-04-16T02:58:50.715Z,43.88
2023-04-16T03:01:18.477Z,40.17
2023-04-16T03:03:46.334Z,41.35
2023-04-16T03:06:15.576Z,43.17
2023-04-16T03:08:43.304Z,36.95
2023-04-16T03:11:11.014Z,38.85
2023-04-16T03:13:38.787Z,39.95
2023-04-16T03:16:07.667Z,39.42
2023-04-16T03:18:35.674Z,39.30
2023-04-16T03:21:03.575Z,35.97
2023-04-16T03:23:32.932Z,42.10
2023-04-16T03:26:00.662Z,43.30
2023-04-16T03:28:28.345Z,44.97
2023-04-16T03:30:56.070Z,39.10
2023-04-16T03:33:23.776Z,47.28
2023-04-16T03:35:57.181Z,46.35
2023-04-16T03:38:25.042Z,40.05
2023-04-16T03:40:54.118Z,46.53
2023-04-16T03:43:22.145Z,40.28
2023-04-16T03:45:49.983Z,39.05
2023-04-16T03:48:17.691Z,43.50
2023-04-16T03:50:47.897Z,50.22
2023-04-16T03:53:15.907Z,42.63
2023-04-16T03:55:43.843Z,53.15
2023-04-16T03:58:12.945Z,49.00
2023-04-16T04:00:42.780Z,52.97
2023-04-16T04:03:10.986Z,49.47
2023-04-16T04:05:39.059Z,51.10
2023-04-16T04:08:07.007Z,51.10
2023-04-16T04:10:35.379Z,53.58
2023-04-16T04:13:04.876Z,45.78
2023-04-16T04:15:34.039Z,49.95
2023-04-16T04:18:01.813Z,54.22
2023-04-16T04:20:29.756Z,55.72
2023-04-16T04:22:57.597Z,48.78
2023-04-16T04:25:25.528Z,54.72
2023-04-16T04:27:53.238Z,49.35
2023-04-16T04:30:21.085Z,52.67
2023-04-16T04:32:50.696Z,50.38
2023-04-16T04:35:18.601Z,54.17
2023-04-16T04:37:46.498Z,50.70
2023-04-16T04:40:14.201Z,58.70
2023-04-16T04:42:41.917Z,54.58
2023-04-16T04:45:11.508Z,51.17
2023-04-16T04:47:39.322Z,53.15
2023-04-16T04:50:09.703Z,53.45
2023-04-16T04:52:37.620Z,55.33
2023-04-16T04:55:06.098Z,54.53
2023-04-16T04:57:33.748Z,63.25
2023-04-16T05:00:03.688Z,52.85
2023-04-16T05:02:31.607Z,55.70
2023-04-16T05:04:59.389Z,52.15
2023-04-16T05:07:28.467Z,55.42
2023-04-16T05:09:56.122Z,69.65
2023-04-16T05:12:23.916Z,64.03
2023-04-16T05:14:51.615Z,64.80
2023-04-16T05:17:19.504Z,62.15
2023-04-16T05:19:47.258Z,62.53
2023-04-16T05:22:18.763Z,53.83
2023-04-16T05:24:47.885Z,59.57
2023-04-16T05:27:15.814Z,61.50
2023-04-16T05:29:43.479Z,55.92
2023-04-16T05:32:11.217Z,52.97
2023-04-16T05:34:38.951Z,54.88
2023-04-16T05:37:06.631Z,53.50
2023-04-16T05:39:34.340Z,59.53
2023-04-16T05:42:03.529Z,55.08
2023-04-16T05:44:31.237Z,58.60
2023-04-16T05:46:58.931Z,67.00
2023-04-16T05:49:26.634Z,55.30
2023-04-16T05:51:54.389Z,65.95
2023-04-16T05:54:22.312Z,79.70
2023-04-16T05:56:49.949Z,67.18
2023-04-16T05:59:19.007Z,68.63
2023-04-16T06:01:46.733Z,70.95
2023-04-16T06:04:14.580Z,61.97
2023-04-16T06:06:43.972Z,58.63
2023-04-16T06:09:12.268Z,60.72
2023-04-16T06:11:40.112Z,51.20
2023-04-16T06:14:08.031Z,53.17
2023-04-16T06:16:38.775Z,51.00
2023-04-16T06:19:06.516Z,46.78
2023-04-16T06:21:34.631Z,47.92
2023-04-16T06:24:02.398Z,50.25
2023-04-16T06:26:30.060Z,44.47
2023-04-16T06:28:59.864Z,48.40
2023-04-16T06:31:27.964Z,46.55
2023-04-16T06:33:57.036Z,44.92
2023-04-16T06:36:24.747Z,46.35
2023-04-16T06:38:52.411Z,44.67
2023-04-16T06:41:20.248Z,42.30
2023-04-16T06:43:47.988Z,45.83
2023-04-16T06:46:15.850Z,43.25
2023-04-16T06:48:43.676Z,42.90
2023-04-16T06:51:13.277Z,44.63
2023-04-16T06:53:42.418Z,44.78
2023-04-16T06:56:10.185Z,42.30
2023-04-16T06:58:38.121Z,42.85
2023-04-16T07:01:06.125Z,44.17
2023-04-16T07:03:34.058Z,39.42
2023-04-16T07:06:02.342Z,41.20
2023-04-16T07:08:31.451Z,42.50
2023-04-16T07:10:59.351Z,40.08
2023-04-16T07:13:27.643Z,37.97
2023-04-16T07:15:55.461Z,39.25
2023-04-16T07:18:23.472Z,38.63
2023-04-16T07:20:51.272Z,37.03
2023-04-16T07:23:19.033Z,37.97
2023-04-16T07:25:48.257Z,38.35
2023-04-16T07:28:17.582Z,37.08
2023-04-16T07:30:45.536Z,35.45
2023-04-16T07:33:13.389Z,38.38
2023-04-16T07:35:41.151Z,36.35
2023-04-16T07:38:09.241Z,36.10
2023-04-16T07:40:38.658Z,40.05
2023-04-16T07:43:08.446Z,44.75
2023-04-16T07:45:36.969Z,38.78
2023-04-16T07:48:05.264Z,36.35
2023-04-16T07:50:33.387Z,40.50
2023-04-16T07:53:01.255Z,44.28
2023-04-16T07:55:29.033Z,41.72
2023-04-16T07:57:56.789Z,39.33
2023-04-16T08:00:26.327Z,38.20
2023-04-16T08:02:54.394Z,35.80
2023-04-16T08:05:22.350Z,34.63
2023-04-16T08:07:50.204Z,35.97
2023-04-16T08:10:18.362Z,35.90
2023-04-16T08:12:46.295Z,36.00
2023-04-16T08:15:14.040Z,37.05
2023-04-16T08:17:43.245Z,33.67
2023-04-16T08:20:15.021Z,33.28
2023-04-16T08:22:45.848Z,35.25
2023-04-16T08:25:13.596Z,32.00
2023-04-16T08:27:41.399Z,34.95
2023-04-16T08:30:09.740Z,32.50
2023-04-16T08:32:37.814Z,31.15
2023-04-16T08:35:07.710Z,35.08
2023-04-16T08:37:35.788Z,33.92
2023-04-16T08:40:03.983Z,31.75
2023-04-16T08:42:33.559Z,31.23
2023-04-16T08:45:08.792Z,33.45
2023-04-16T08:47:37.739Z,34.47
2023-04-16T08:50:10.018Z,30.45
2023-04-16T08:52:44.103Z,29.23
2023-04-16T08:55:15.100Z,30.70
2023-04-16T08:57:49.993Z,31.00
2023-04-16T09:00:18.550Z,30.38
2023-04-16T09:02:46.958Z,30.92
2023-04-16T09:05:18.127Z,30.63
2023-04-16T09:07:47.323Z,30.70
2023-04-16T09:10:16.113Z,32.78
2023-04-16T09:12:44.583Z,31.45
2023-04-16T09:15:14.201Z,29.20
2023-04-16T09:17:43.019Z,28.65
2023-04-16T09:20:12.494Z,28.33
2023-04-16T09:22:41.667Z,26.33
2023-04-16T09:25:11.033Z,28.85
2023-04-16T09:27:39.126Z,28.85
2023-04-16T09:30:22.883Z,29.83
2023-04-16T09:32:51.215Z,33.03
2023-04-16T09:35:20.003Z,28.83
2023-04-16T09:37:58.905Z,29.13
2023-04-16T09:40:30.477Z,31.42
2023-04-16T09:43:00.742Z,27.65
2023-04-16T09:45:33.989Z,27.63
2023-04-16T09:48:05.931Z,31.30
2023-04-16T09:50:33.679Z,25.42
2023-04-16T09:53:04.465Z,26.67
2023-04-16T09:55:32.242Z,27.00
2023-04-16T09:58:01.243Z,26.17
2023-04-16T10:00:31.001Z,26.55
2023-04-16T10:03:05.785Z,28.15
2023-04-16T10:05:33.639Z,25.25
2023-04-16T10:08:03.000Z,24.60
2023-04-16T10:10:30.856Z,25.67
2023-04-16T10:12:59.021Z,24.05
2023-04-16T10:15:26.951Z,25.83
2023-04-16T10:17:55.193Z,22.27
2023-04-16T10:20:24.913Z,22.88
2023-04-16T10:22:54.217Z,22.92
2023-04-16T10:25:24.397Z,24.95
2023-04-16T10:27:52.750Z,23.25
2023-04-16T10:30:36.297Z,23.80
2023-04-16T10:33:06.285Z,22.75
2023-04-16T10:35:33.998Z,25.42
2023-04-16T10:38:23.157Z,24.60
2023-04-16T10:40:59.129Z,23.65
2023-04-16T10:43:27.017Z,23.27
2023-04-16T10:45:55.194Z,23.88
2023-04-16T10:48:26.321Z,23.85
2023-04-16T10:50:58.515Z,21.75
2023-04-16T10:53:27.930Z,22.65
2023-04-16T10:56:12.660Z,21.33
2023-04-16T10:58:40.401Z,22.38
2023-04-16T11:01:12.101Z,21.48
2023-04-16T11:03:43.899Z,21.67
2023-04-16T11:06:13.520Z,21.88
2023-04-16T11:08:53.919Z,23.20
2023-04-16T11:11:24.543Z,20.58
2023-04-16T11:13:56.953Z,17.10
2023-04-16T11:16:26.498Z,17.42
2023-04-16T11:18:56.729Z,19.15
2023-04-16T11:21:25.412Z,21.33
2023-04-16T11:23:54.331Z,20.98
2023-04-16T11:26:25.157Z,19.40
2023-04-16T11:28:53.384Z,19.77
2023-04-16T11:31:21.232Z,17.27
2023-04-16T11:33:49.110Z,19.55
2023-04-16T11:36:16.952Z,17.35
2023-04-16T11:38:44.723Z,17.35
2023-04-16T11:41:13.208Z,17.42
2023-04-16T11:43:42.313Z,16.98
2023-04-16T11:46:24.073Z,17.73
2023-04-16T11:48:56.443Z,17.55
2023-04-16T11:51:24.408Z,16.85
2023-04-16T11:53:53.512Z,16.88
2023-04-16T11:56:29.379Z,17.80
2023-04-16T11:59:12.408Z,18.17
2023-04-16T12:01:41.813Z,19.00
2023-04-16T12:04:10.463Z,20.70
2023-04-16T12:06:38.861Z,18.73
2023-04-16T12:09:26.084Z,17.92
2023-04-16T12:11:54.210Z,18.73
2023-04-16T12:14:24.194Z,19.35
2023-04-16T12:16:52.156Z,18.75
2023-04-16T12:19:20.047Z,18.65
2023-04-16T12:21:50.314Z,20.17
2023-04-16T12:24:23.342Z,20.25
2023-04-16T12:26:56.162Z,20.52
2023-04-16T12:29:26.230Z,20.08
2023-04-16T12:31:55.065Z,19.80
2023-04-16T12:34:49.247Z,20.15
2023-04-16T12:37:11.303Z,19.45
2023-04-16T12:39:39.073Z,20.40
2023-04-16T12:42:11.268Z,19.98
2023-04-16T12:44:40.603Z,21.67
2023-04-16T12:47:08.539Z,19.80
2023-04-16T12:49:38.200Z,19.77
2023-04-16T12:52:06.385Z,19.50
2023-04-16T12:54:34.167Z,20.30
2023-04-16T12:57:01.980Z,20.45
2023-04-16T12:59:30.000Z,20.58
2023-04-16T13:01:59.352Z,19.55
2023-04-16T13:04:27.369Z,23.17
2023-04-16T13:06:55.354Z,20.15
2023-04-16T13:09:23.328Z,19.88
2023-04-16T13:11:51.254Z,21.15
2023-04-16T13:14:19.073Z,19.20
2023-04-16T13:16:47.315Z,19.17
2023-04-16T13:19:19.136Z,21.15
2023-04-16T13:21:47.065Z,21.63
2023-04-16T13:24:15.249Z,21.05
2023-04-16T13:26:43.720Z,20.70
2023-04-16T13:29:12.131Z,20.10
2023-04-16T13:31:40.228Z,20.08
2023-04-16T13:34:08.466Z,20.13
2023-04-16T13:36:37.902Z,18.92
2023-04-16T13:39:11.490Z,18.95
2023-04-16T13:41:39.974Z,19.05
2023-04-16T13:44:08.492Z,19.92
2023-04-16T13:46:36.596Z,20.83
2023-04-16T13:49:04.359Z,20.17
2023-04-16T13:51:32.109Z,18.85
2023-04-16T13:54:01.572Z,19.08
2023-04-16T13:56:29.429Z,18.83
2023-04-16T13:58:57.272Z,18.80
2023-04-16T14:01:25.189Z,19.60
2023-04-16T14:03:56.102Z,19.42
2023-04-16T14:06:23.922Z,22.30
2023-04-16T14:08:51.660Z,19.77
2023-04-16T14:11:20.754Z,19.63
2023-04-16T14:13:48.631Z,20.63
2023-04-16T14:16:16.563Z,19.48
2023-04-16T14:18:44.624Z,16.60
2023-04-16T14:21:12.396Z,17.30
2023-04-16T14:23:40.344Z,18.50
2023-04-16T14:26:08.158Z,17.50
2023-04-16T14:28:37.463Z,16.48
2023-04-16T14:31:05.248Z,16.38
2023-04-16T14:33:33.458Z,16.85
2023-04-16T14:36:03.214Z,16.90
2023-04-16T14:38:31.548Z,17.05
2023-04-16T14:41:00.546Z,18.23
2023-04-16T14:43:28.539Z,17.45
2023-04-16T14:45:58.651Z,17.15
2023-04-16T14:48:26.559Z,16.27
2023-04-16T14:50:54.817Z,21.85
2023-04-16T14:53:24.556Z,17.05
2023-04-16T14:55:53.511Z,15.50
2023-04-16T14:58:21.946Z,15.35
2023-04-16T15:00:49.719Z,16.10
2023-04-16T15:03:19.230Z,15.80
2023-04-16T15:05:50.766Z,16.50
2023-04-16T15:08:18.591Z,15.40
2023-04-16T15:10:46.365Z,16.80
2023-04-16T15:13:14.221Z,16.42
2023-04-16T15:15:42.023Z,16.55
2023-04-16T15:18:10.018Z,15.82
2023-04-16T15:20:39.277Z,15.80
2023-04-16T15:23:07.076Z,16.27
2023-04-16T15:25:34.911Z,15.93
2023-04-16T15:28:02.963Z,15.77
2023-04-16T15:30:32.137Z,17.95
2023-04-16T15:33:00.594Z,16.52
2023-04-16T15:35:28.420Z,17.38
2023-04-16T15:37:57.670Z,16.13
2023-04-16T15:40:26.344Z,16.65
2023-04-16T15:42:55.915Z,18.60
2023-04-16T15:45:23.959Z,22.02
2023-04-16T15:47:52.042Z,26.45
2023-04-16T15:50:20.822Z,27.75
2023-04-16T15:52:48.736Z,29.33
2023-04-16T15:55:19.206Z,26.08
2023-04-16T15:57:47.098Z,27.55
2023-04-16T16:00:17.107Z,28.65
2023-04-16T16:02:46.664Z,27.77
2023-04-16T16:05:15.639Z,27.33
2023-04-16T16:07:44.137Z,25.42
2023-04-16T16:10:13.104Z,29.73
2023-04-16T16:12:42.865Z,29.13
2023-04-16T16:15:11.987Z,27.52
2023-04-16T16:17:40.581Z,31.42
2023-04-16T16:20:10.394Z,31.15
2023-04-16T16:22:39.108Z,34.80
2023-04-16T16:25:10.133Z,32.10
2023-04-16T16:27:38.138Z,33.05
2023-04-16T16:30:09.135Z,30.10
2023-04-16T16:32:37.708Z,33.50
2023-04-16T16:35:05.983Z,33.28
2023-04-16T16:37:33.720Z,37.15
2023-04-16T16:40:01.690Z,34.25
2023-04-16T16:42:29.484Z,34.92
2023-04-16T16:44:57.623Z,38.05
2023-04-16T16:47:26.950Z,36.30
2023-04-16T16:49:54.874Z,38.67
2023-04-16T16:52:24.675Z,37.20
2023-04-16T16:54:52.529Z,35.60
2023-04-16T16:57:20.793Z,35.90
2023-04-16T16:59:50.342Z,39.60
2023-04-16T17:02:18.185Z,41.88
2023-04-16T17:04:49.524Z,37.13
2023-04-16T17:07:17.635Z,41.47
2023-04-16T17:09:46.170Z,42.08
2023-04-16T17:12:13.929Z,35.28
2023-04-16T17:14:41.926Z,44.90
2023-04-16T17:17:09.964Z,38.75
2023-04-16T17:19:40.645Z,41.90
2023-04-16T17:22:09.812Z,39.88
2023-04-16T17:24:37.803Z,38.70
2023-04-16T17:27:05.855Z,35.92
2023-04-16T17:29:33.638Z,32.58
2023-04-16T17:32:01.452Z,33.17
2023-04-16T17:34:29.358Z,32.58
2023-04-16T17:36:58.860Z,35.50
2023-04-16T17:39:27.914Z,30.30
2023-04-16T17:41:58.470Z,34.30
2023-04-16T17:44:28.039Z,32.95
2023-04-16T17:46:55.751Z,33.78
2023-04-16T17:49:23.480Z,33.67
2023-04-16T17:51:51.298Z,33.67
2023-04-16T17:54:19.102Z,30.80
2023-04-16T17:56:48.224Z,32.42
2023-04-16T17:59:15.997Z,33.33
2023-04-16T18:01:49.728Z,30.27
2023-04-16T18:04:18.124Z,27.98
2023-04-16T18:06:46.477Z,29.02
2023-04-16T18:09:14.450Z,33.05
2023-04-16T18:11:42.535Z,28.42
2023-04-16T18:14:14.060Z,27.23
2023-04-16T18:16:45.844Z,30.87
2023-04-16T18:19:21.522Z,29.45
2023-04-16T18:21:51.355Z,30.65
2023-04-16T18:24:20.898Z,31.35
2023-04-16T18:26:48.914Z,30.80
2023-04-16T18:29:26.477Z,32.97
2023-04-16T18:31:55.656Z,34.08
2023-04-16T18:34:27.014Z,28.15
2023-04-16T18:36:54.931Z,29.27
2023-04-16T18:39:23.113Z,30.27
2023-04-16T18:41:52.807Z,24.38
2023-04-16T18:44:23.264Z,24.77
2023-04-16T18:46:51.388Z,27.15
2023-04-16T18:49:19.199Z,27.70
2023-04-16T18:51:47.034Z,28.20
2023-04-16T18:54:15.706Z,31.13
2023-04-16T18:56:43.659Z,31.65
2023-04-16T18:59:12.217Z,32.88
2023-04-16T19:01:54.123Z,33.03
2023-04-16T19:04:26.913Z,35.47
2023-04-16T19:06:57.680Z,31.00
2023-04-16T19:09:27.726Z,33.58
2023-04-16T19:11:56.141Z,34.00
2023-04-16T19:14:26.017Z,33.40
2023-04-16T19:16:55.912Z,35.45
2023-04-16T19:19:25.056Z,32.47
2023-04-16T19:21:52.959Z,29.48
2023-04-16T19:24:20.973Z,24.13
2023-04-16T19:26:49.354Z,28.45
2023-04-16T19:29:18.157Z,28.83
2023-04-16T19:31:48.482Z,24.83
2023-04-16T19:34:20.072Z,29.02
2023-04-16T19:36:47.942Z,30.73
2023-04-16T19:39:15.993Z,25.08
2023-04-16T19:41:43.936Z,27.35
2023-04-16T19:44:12.376Z,32.42
2023-04-16T19:46:40.309Z,28.05
2023-04-16T19:49:08.547Z,25.45
2023-04-16T19:51:38.087Z,33.35
2023-04-16T19:54:09.745Z,28.02
2023-04-16T19:56:38.390Z,25.20
2023-04-16T19:59:06.344Z,28.42
2023-04-16T20:01:35.621Z,25.95
2023-04-16T20:04:04.195Z,26.02
2023-04-16T20:06:34.951Z,26.80
2023-04-16T20:09:04.888Z,27.88
2023-04-16T20:11:32.620Z,31.02
2023-04-16T20:14:01.226Z,29.40
2023-04-16T20:16:30.108Z,31.02
2023-04-16T20:19:07.989Z,34.53
2023-04-16T20:21:36.943Z,32.50
2023-04-16T20:24:10.449Z,30.52
2023-04-16T20:26:38.569Z,35.42
2023-04-16T20:29:06.466Z,32.60
2023-04-16T20:31:34.304Z,37.08
2023-04-16T20:34:02.231Z,32.67
2023-04-16T20:36:29.962Z,36.03
2023-04-16T20:38:59.397Z,35.78
2023-04-16T20:41:30.102Z,32.55
2023-04-16T20:43:58.071Z,37.60
2023-04-16T20:46:25.814Z,34.60
2023-04-16T20:48:53.509Z,38.13
2023-04-16T20:51:21.520Z,35.33
2023-04-16T20:53:50.101Z,32.00
2023-04-16T20:56:17.828Z,37.88
2023-04-16T20:58:46.965Z,36.83
2023-04-16T21:01:14.841Z,36.67
2023-04-16T21:03:42.992Z,37.97
2023-04-16T21:06:14.351Z,40.50
2023-04-16T21:08:42.125Z,36.00
2023-04-16T21:11:09.842Z,41.53
2023-04-16T21:13:38.138Z,38.28
2023-04-16T21:16:09.728Z,38.42
2023-04-16T21:18:37.903Z,43.28
2023-04-16T21:21:05.809Z,37.47
2023-04-16T21:23:33.620Z,45.33
2023-04-16T21:26:01.305Z,42.33
2023-04-16T21:28:29.414Z,42.92
2023-04-16T21:30:57.472Z,39.10
2023-04-16T21:33:26.646Z,43.42
2023-04-16T21:35:54.779Z,40.83
2023-04-16T21:38:23.310Z,45.50
2023-04-16T21:40:53.937Z,47.47
2023-04-16T21:43:21.774Z,39.05
2023-04-16T21:45:49.641Z,44.15
2023-04-16T21:48:17.385Z,40.10
2023-04-16T21:50:46.506Z,41.35
2023-04-16T21:53:14.365Z,47.85
2023-04-16T21:55:42.185Z,42.00
2023-04-16T21:58:09.989Z,45.50
2023-04-16T22:00:37.973Z,48.40
2023-04-16T22:03:05.974Z,43.13
2023-04-16T22:05:33.771Z,45.72
2023-04-16T22:08:16.878Z,49.00
2023-04-16T22:10:45.072Z,47.22
2023-04-16T22:13:13.809Z,47.10
2023-04-16T22:15:42.191Z,49.10
2023-04-16T22:18:10.394Z,47.33
2023-04-16T22:20:39.795Z,47.78
2023-04-16T22:23:08.966Z,52.47
2023-04-16T22:25:36.850Z,47.70
2023-04-16T22:28:04.647Z,47.70
2023-04-16T22:30:32.481Z,45.72
2023-04-16T22:33:00.986Z,48.63
2023-04-16T22:35:28.776Z,49.30
2023-04-16T22:37:56.574Z,49.97
2023-04-16T22:40:25.672Z,46.17
2023-04-16T22:42:53.416Z,45.90
2023-04-16T22:45:21.204Z,47.72
2023-04-16T22:47:48.973Z,47.42
2023-04-16T22:50:17.473Z,48.97
2023-04-16T22:52:45.226Z,44.63
2023-04-16T22:55:12.974Z,47.70
2023-04-16T22:57:42.171Z,52.38
2023-04-16T23:00:15.368Z,49.22
2023-04-16T23:02:43.271Z,46.85
2023-04-16T23:05:11.665Z,41.42
2023-04-16T23:07:39.635Z,48.13
2023-04-16T23:10:08.931Z,50.05
2023-04-16T23:12:38.110Z,46.38
2023-04-16T23:15:08.848Z,48.58
2023-04-16T23:17:36.918Z,44.08
2023-04-16T23:20:07.643Z,46.95
2023-04-16T23:22:35.997Z,52.08
2023-04-16T23:25:03.774Z,49.00
2023-04-16T23:27:32.478Z,44.13
2023-04-16T23:30:00.344Z,49.85
2023-04-16T23:32:29.516Z,47.60
2023-04-16T23:34:57.487Z,45.53
2023-04-16T23:37:25.400Z,47.13
2023-04-16T23:39:53.175Z,48.83
2023-04-16T23:42:20.991Z,51.13
2023-04-16T23:44:48.739Z,47.58
2023-04-16T23:47:16.422Z,47.63
2023-04-16T23:49:45.505Z,46.38
2023-04-16T23:52:13.302Z,47.55
2023-04-16T23:54:41.232Z,49.03
2023-04-16T23:57:09.071Z,50.95
2023-04-16T23:59:36.772Z,45.80
